sensor_id;sensor_type;location;lat;lon;timestamp;P1;durP1;ratioP1;P2;durP2;ratioP2
33206;SDS011;19565;46.602;11.534;2022-12-07T00:01:35;5.03;;;4.63;;
33206;SDS011;19565;46.602;11.534;2022-12-07T00:04:06;4.97;;;4.67;;
33206;SDS011;19565;46.602;11.534;2022-12-07T00:06:37;4.70;;;4.40;;
33206;SDS011;19565;46.602;11.534;2022-12-07T00:09:09;4.40;;;4.20;;
33206;SDS011;19565;46.602;11.534;2022-12-07T00:11:38;5.13;;;4.73;;
33206;SDS011;19565;46.602;11.534;2022-12-07T00:14:07;4.40;;;4.20;;
33206;SDS011;19565;46.602;11.534;2022-12-07T00:16:39;5.53;;;5.13;;
33206;SDS011;19565;46.602;11.534;2022-12-07T00:19:09;4.43;;;4.13;;
33206;SDS011;19565;46.602;11.534;2022-12-07T00:21:38;3.87;;;3.67;;
33206;SDS011;19565;46.602;11.534;2022-12-07T00:24:06;3.77;;;3.57;;
33206;SDS011;19565;46.602;11.534;2022-12-07T00:26:35;0.83;;;0.83;;
33206;SDS011;19565;46.602;11.534;2022-12-07T00:29:06;1.30;;;1.20;;
33206;SDS011;19565;46.602;11.534;2022-12-07T00:31:40;0.50;;;0.50;;
33206;SDS011;19565;46.602;11.534;2022-12-07T00:34:11;2.40;;;2.20;;
33206;SDS011;19565;46.602;11.534;2022-12-07T00:36:41;1.37;;;1.27;;
33206;SDS011;19565;46.602;11.534;2022-12-07T00:39:09;0.50;;;0.50;;
33206;SDS011;19565;46.602;11.534;2022-12-07T00:41:37;0.77;;;0.77;;
33206;SDS011;19565;46.602;11.534;2022-12-07T00:44:05;0.80;;;0.80;;
33206;SDS011;19565;46.602;11.534;2022-12-07T00:46:33;0.73;;;0.73;;
33206;SDS011;19565;46.602;11.534;2022-12-07T00:49:03;2.40;;;1.93;;
33206;SDS011;19565;46.602;11.534;2022-12-07T00:51:31;0.40;;;0.40;;
33206;SDS011;19565;46.602;11.534;2022-12-07T00:53:59;0.97;;;0.97;;
33206;SDS011;19565;46.602;11.534;2022-12-07T00:56:27;0.87;;;0.80;;
33206;SDS011;19565;46.602;11.534;2022-12-07T00:58:57;0.90;;;0.90;;
33206;SDS011;19565;46.602;11.534;2022-12-07T01:01:28;0.60;;;0.60;;
33206;SDS011;19565;46.602;11.534;2022-12-07T01:03:59;0.50;;;0.50;;
33206;SDS011;19565;46.602;11.534;2022-12-07T01:06:29;0.60;;;0.60;;
33206;SDS011;19565;46.602;11.534;2022-12-07T01:08:58;0.80;;;0.80;;
33206;SDS011;19565;46.602;11.534;2022-12-07T01:11:27;1.43;;;1.33;;
33206;SDS011;19565;46.602;11.534;2022-12-07T01:13:58;2.70;;;1.20;;
33206;SDS011;19565;46.602;11.534;2022-12-07T01:16:27;0.70;;;0.70;;
33206;SDS011;19565;46.602;11.534;2022-12-07T01:18:57;0.63;;;0.63;;
33206;SDS011;19565;46.602;11.534;2022-12-07T01:21:26;0.50;;;0.50;;
33206;SDS011;19565;46.602;11.534;2022-12-07T01:23:57;1.47;;;1.37;;
33206;SDS011;19565;46.602;11.534;2022-12-07T01:26:26;0.47;;;0.47;;
33206;SDS011;19565;46.602;11.534;2022-12-07T01:28:54;1.03;;;1.03;;
33206;SDS011;19565;46.602;11.534;2022-12-07T01:31:25;1.20;;;1.20;;
33206;SDS011;19565;46.602;11.534;2022-12-07T01:33:54;0.90;;;0.90;;
33206;SDS011;19565;46.602;11.534;2022-12-07T01:36:25;0.50;;;0.50;;
33206;SDS011;19565;46.602;11.534;2022-12-07T01:38:55;0.67;;;0.67;;
33206;SDS011;19565;46.602;11.534;2022-12-07T01:41:27;0.60;;;0.60;;
33206;SDS011;19565;46.602;11.534;2022-12-07T01:44:10;0.90;;;0.90;;
33206;SDS011;19565;46.602;11.534;2022-12-07T01:46:42;0.70;;;0.70;;
33206;SDS011;19565;46.602;11.534;2022-12-07T01:49:13;1.33;;;1.23;;
33206;SDS011;19565;46.602;11.534;2022-12-07T01:51:48;7.57;;;4.80;;
33206;SDS011;19565;46.602;11.534;2022-12-07T01:54:19;5.33;;;5.03;;
33206;SDS011;19565;46.602;11.534;2022-12-07T01:56:49;4.70;;;4.40;;
33206;SDS011;19565;46.602;11.534;2022-12-07T01:59:19;4.83;;;4.53;;
33206;SDS011;19565;46.602;11.534;2022-12-07T02:01:52;4.47;;;4.27;;
33206;SDS011;19565;46.602;11.534;2022-12-07T02:04:22;4.60;;;4.30;;
33206;SDS011;19565;46.602;11.534;2022-12-07T02:06:50;3.90;;;3.70;;
33206;SDS011;19565;46.602;11.534;2022-12-07T02:09:24;4.00;;;3.80;;
33206;SDS011;19565;46.602;11.534;2022-12-07T02:11:52;3.50;;;3.30;;
33206;SDS011;19565;46.602;11.534;2022-12-07T02:14:21;3.80;;;3.57;;
33206;SDS011;19565;46.602;11.534;2022-12-07T02:16:53;3.67;;;3.47;;
33206;SDS011;19565;46.602;11.534;2022-12-07T02:19:35;0.70;;;0.70;;
33206;SDS011;19565;46.602;11.534;2022-12-07T02:22:24;0.50;;;0.50;;
33206;SDS011;19565;46.602;11.534;2022-12-07T02:25:10;1.20;;;1.03;;
33206;SDS011;19565;46.602;11.534;2022-12-07T02:27:50;0.50;;;0.50;;
33206;SDS011;19565;46.602;11.534;2022-12-07T02:30:26;1.67;;;1.47;;
33206;SDS011;19565;46.602;11.534;2022-12-07T02:32:58;0.70;;;0.70;;
33206;SDS011;19565;46.602;11.534;2022-12-07T02:35:30;0.50;;;0.50;;
33206;SDS011;19565;46.602;11.534;2022-12-07T02:38:02;0.80;;;0.80;;
33206;SDS011;19565;46.602;11.534;2022-12-07T02:40:35;0.60;;;0.60;;
33206;SDS011;19565;46.602;11.534;2022-12-07T02:43:07;0.40;;;0.40;;
33206;SDS011;19565;46.602;11.534;2022-12-07T02:45:40;0.60;;;0.60;;
33206;SDS011;19565;46.602;11.534;2022-12-07T02:48:12;0.50;;;0.50;;
33206;SDS011;19565;46.602;11.534;2022-12-07T02:50:44;0.40;;;0.40;;
33206;SDS011;19565;46.602;11.534;2022-12-07T02:53:29;0.60;;;0.60;;
33206;SDS011;19565;46.602;11.534;2022-12-07T02:55:59;3.20;;;1.33;;
33206;SDS011;19565;46.602;11.534;2022-12-07T02:58:50;1.10;;;1.10;;
33206;SDS011;19565;46.602;11.534;2022-12-07T03:01:28;0.73;;;0.73;;
33206;SDS011;19565;46.602;11.534;2022-12-07T03:04:02;2.40;;;2.30;;
33206;SDS011;19565;46.602;11.534;2022-12-07T03:06:43;2.40;;;2.30;;
33206;SDS011;19565;46.602;11.534;2022-12-07T03:09:20;2.30;;;2.20;;
33206;SDS011;19565;46.602;11.534;2022-12-07T03:11:55;3.13;;;2.93;;
33206;SDS011;19565;46.602;11.534;2022-12-07T03:14:29;2.67;;;2.57;;
33206;SDS011;19565;46.602;11.534;2022-12-07T03:17:02;2.40;;;2.30;;
33206;SDS011;19565;46.602;11.534;2022-12-07T03:19:37;2.77;;;2.67;;
33206;SDS011;19565;46.602;11.534;2022-12-07T03:22:10;3.17;;;2.97;;
33206;SDS011;19565;46.602;11.534;2022-12-07T03:24:40;2.43;;;2.33;;
33206;SDS011;19565;46.602;11.534;2022-12-07T03:27:12;2.40;;;2.30;;
33206;SDS011;19565;46.602;11.534;2022-12-07T03:29:44;2.80;;;2.70;;
33206;SDS011;19565;46.602;11.534;2022-12-07T03:32:19;2.90;;;2.80;;
33206;SDS011;19565;46.602;11.534;2022-12-07T03:34:53;2.27;;;2.17;;
33206;SDS011;19565;46.602;11.534;2022-12-07T03:37:26;3.67;;;3.47;;
33206;SDS011;19565;46.602;11.534;2022-12-07T03:40:01;2.77;;;2.67;;
33206;SDS011;19565;46.602;11.534;2022-12-07T03:42:33;2.90;;;2.80;;
33206;SDS011;19565;46.602;11.534;2022-12-07T03:45:02;3.50;;;3.30;;
33206;SDS011;19565;46.602;11.534;2022-12-07T03:47:33;3.07;;;2.97;;
33206;SDS011;19565;46.602;11.534;2022-12-07T03:50:06;3.30;;;3.10;;
33206;SDS011;19565;46.602;11.534;2022-12-07T03:52:39;3.27;;;3.07;;
33206;SDS011;19565;46.602;11.534;2022-12-07T03:55:10;3.60;;;3.40;;
33206;SDS011;19565;46.602;11.534;2022-12-07T03:57:42;3.20;;;3.00;;
33206;SDS011;19565;46.602;11.534;2022-12-07T04:00:12;3.60;;;3.40;;
33206;SDS011;19565;46.602;11.534;2022-12-07T04:02:42;3.50;;;3.30;;
33206;SDS011;19565;46.602;11.534;2022-12-07T04:05:10;5.00;;;4.70;;
33206;SDS011;19565;46.602;11.534;2022-12-07T04:07:39;3.40;;;3.20;;
33206;SDS011;19565;46.602;11.534;2022-12-07T04:10:08;3.33;;;3.13;;
33206;SDS011;19565;46.602;11.534;2022-12-07T04:12:36;3.63;;;3.43;;
33206;SDS011;19565;46.602;11.534;2022-12-07T04:15:05;3.60;;;3.40;;
33206;SDS011;19565;46.602;11.534;2022-12-07T04:17:37;6.60;;;4.50;;
33206;SDS011;19565;46.602;11.534;2022-12-07T04:20:10;4.73;;;4.40;;
33206;SDS011;19565;46.602;11.534;2022-12-07T04:22:41;3.73;;;3.53;;
33206;SDS011;19565;46.602;11.534;2022-12-07T04:25:09;3.70;;;3.50;;
33206;SDS011;19565;46.602;11.534;2022-12-07T04:27:37;3.50;;;3.30;;
33206;SDS011;19565;46.602;11.534;2022-12-07T04:30:06;4.10;;;3.90;;
33206;SDS011;19565;46.602;11.534;2022-12-07T04:32:34;3.37;;;3.17;;
33206;SDS011;19565;46.602;11.534;2022-12-07T04:35:03;3.80;;;3.60;;
33206;SDS011;19565;46.602;11.534;2022-12-07T04:37:33;4.10;;;3.90;;
33206;SDS011;19565;46.602;11.534;2022-12-07T04:40:06;4.30;;;4.10;;
33206;SDS011;19565;46.602;11.534;2022-12-07T04:42:37;4.63;;;4.33;;
33206;SDS011;19565;46.602;11.534;2022-12-07T04:45:06;4.07;;;3.87;;
33206;SDS011;19565;46.602;11.534;2022-12-07T04:47:34;3.67;;;3.47;;
33206;SDS011;19565;46.602;11.534;2022-12-07T04:50:03;4.03;;;3.83;;
33206;SDS011;19565;46.602;11.534;2022-12-07T04:52:33;4.00;;;3.80;;
33206;SDS011;19565;46.602;11.534;2022-12-07T04:55:01;3.63;;;3.43;;
33206;SDS011;19565;46.602;11.534;2022-12-07T04:57:29;3.37;;;3.17;;
33206;SDS011;19565;46.602;11.534;2022-12-07T04:59:57;2.90;;;2.80;;
33206;SDS011;19565;46.602;11.534;2022-12-07T05:02:26;4.07;;;3.77;;
33206;SDS011;19565;46.602;11.534;2022-12-07T05:04:54;4.87;;;3.50;;
33206;SDS011;19565;46.602;11.534;2022-12-07T05:07:22;4.20;;;3.90;;
33206;SDS011;19565;46.602;11.534;2022-12-07T05:09:51;2.70;;;2.60;;
33206;SDS011;19565;46.602;11.534;2022-12-07T05:12:19;3.80;;;3.33;;
33206;SDS011;19565;46.602;11.534;2022-12-07T05:14:47;2.60;;;2.50;;
33206;SDS011;19565;46.602;11.534;2022-12-07T05:17:15;3.27;;;3.10;;
33206;SDS011;19565;46.602;11.534;2022-12-07T05:19:43;2.93;;;2.83;;
33206;SDS011;19565;46.602;11.534;2022-12-07T05:22:11;3.07;;;2.93;;
33206;SDS011;19565;46.602;11.534;2022-12-07T05:24:41;3.17;;;2.97;;
33206;SDS011;19565;46.602;11.534;2022-12-07T05:27:10;2.50;;;2.40;;
33206;SDS011;19565;46.602;11.534;2022-12-07T05:29:38;3.10;;;2.90;;
33206;SDS011;19565;46.602;11.534;2022-12-07T05:32:06;2.40;;;2.30;;
33206;SDS011;19565;46.602;11.534;2022-12-07T05:34:35;2.60;;;2.50;;
33206;SDS011;19565;46.602;11.534;2022-12-07T05:37:05;2.80;;;2.70;;
33206;SDS011;19565;46.602;11.534;2022-12-07T05:39:32;2.63;;;2.53;;
33206;SDS011;19565;46.602;11.534;2022-12-07T05:42:00;2.30;;;2.20;;
33206;SDS011;19565;46.602;11.534;2022-12-07T05:44:42;2.50;;;2.40;;
33206;SDS011;19565;46.602;11.534;2022-12-07T05:47:12;2.50;;;2.40;;
33206;SDS011;19565;46.602;11.534;2022-12-07T05:49:41;2.50;;;2.40;;
33206;SDS011;19565;46.602;11.534;2022-12-07T05:52:09;2.83;;;2.73;;
33206;SDS011;19565;46.602;11.534;2022-12-07T05:54:37;2.80;;;2.70;;
33206;SDS011;19565;46.602;11.534;2022-12-07T05:57:05;4.10;;;3.83;;
33206;SDS011;19565;46.602;11.534;2022-12-07T05:59:33;2.73;;;2.63;;
33206;SDS011;19565;46.602;11.534;2022-12-07T06:02:02;2.10;;;2.00;;
33206;SDS011;19565;46.602;11.534;2022-12-07T06:04:34;2.63;;;2.53;;
33206;SDS011;19565;46.602;11.534;2022-12-07T06:07:04;2.73;;;2.63;;
33206;SDS011;19565;46.602;11.534;2022-12-07T06:09:33;2.60;;;2.50;;
33206;SDS011;19565;46.602;11.534;2022-12-07T06:12:01;2.30;;;2.20;;
33206;SDS011;19565;46.602;11.534;2022-12-07T06:14:48;3.27;;;3.07;;
33206;SDS011;19565;46.602;11.534;2022-12-07T06:17:17;2.40;;;2.30;;
33206;SDS011;19565;46.602;11.534;2022-12-07T06:19:45;2.63;;;2.53;;
33206;SDS011;19565;46.602;11.534;2022-12-07T06:22:13;3.97;;;3.67;;
33206;SDS011;19565;46.602;11.534;2022-12-07T06:24:42;2.20;;;2.10;;
33206;SDS011;19565;46.602;11.534;2022-12-07T06:27:10;2.30;;;2.20;;
33206;SDS011;19565;46.602;11.534;2022-12-07T06:29:38;2.43;;;2.33;;
33206;SDS011;19565;46.602;11.534;2022-12-07T06:32:06;2.70;;;2.60;;
33206;SDS011;19565;46.602;11.534;2022-12-07T06:34:36;2.73;;;2.63;;
33206;SDS011;19565;46.602;11.534;2022-12-07T06:37:05;3.37;;;3.07;;
33206;SDS011;19565;46.602;11.534;2022-12-07T06:39:33;2.90;;;2.80;;
33206;SDS011;19565;46.602;11.534;2022-12-07T06:42:01;3.93;;;3.40;;
33206;SDS011;19565;46.602;11.534;2022-12-07T06:44:29;3.83;;;3.63;;
33206;SDS011;19565;46.602;11.534;2022-12-07T06:46:58;10.97;;;3.30;;
33206;SDS011;19565;46.602;11.534;2022-12-07T06:49:47;3.80;;;3.60;;
33206;SDS011;19565;46.602;11.534;2022-12-07T06:52:15;4.00;;;3.70;;
33206;SDS011;19565;46.602;11.534;2022-12-07T06:54:43;3.47;;;3.27;;
33206;SDS011;19565;46.602;11.534;2022-12-07T06:57:11;3.90;;;3.70;;
33206;SDS011;19565;46.602;11.534;2022-12-07T06:59:39;3.47;;;3.27;;
33206;SDS011;19565;46.602;11.534;2022-12-07T07:02:08;3.30;;;3.10;;
33206;SDS011;19565;46.602;11.534;2022-12-07T07:04:37;3.00;;;2.90;;
33206;SDS011;19565;46.602;11.534;2022-12-07T07:07:06;3.87;;;3.67;;
33206;SDS011;19565;46.602;11.534;2022-12-07T07:09:34;3.43;;;3.23;;
33206;SDS011;19565;46.602;11.534;2022-12-07T07:12:02;3.50;;;3.30;;
33206;SDS011;19565;46.602;11.534;2022-12-07T07:14:30;4.23;;;4.03;;
33206;SDS011;19565;46.602;11.534;2022-12-07T07:16:59;3.63;;;3.43;;
33206;SDS011;19565;46.602;11.534;2022-12-07T07:19:27;1.00;;;1.00;;
33206;SDS011;19565;46.602;11.534;2022-12-07T07:21:55;1.13;;;1.13;;
33206;SDS011;19565;46.602;11.534;2022-12-07T07:24:24;0.87;;;0.87;;
33206;SDS011;19565;46.602;11.534;2022-12-07T07:26:52;0.93;;;0.93;;
33206;SDS011;19565;46.602;11.534;2022-12-07T07:29:20;3.60;;;3.40;;
33206;SDS011;19565;46.602;11.534;2022-12-07T07:31:49;5.93;;;3.30;;
33206;SDS011;19565;46.602;11.534;2022-12-07T07:34:17;4.87;;;4.57;;
33206;SDS011;19565;46.602;11.534;2022-12-07T07:36:45;3.73;;;3.53;;
33206;SDS011;19565;46.602;11.534;2022-12-07T07:39:13;4.17;;;3.87;;
33206;SDS011;19565;46.602;11.534;2022-12-07T07:41:43;4.33;;;4.13;;
33206;SDS011;19565;46.602;11.534;2022-12-07T07:44:11;3.20;;;3.00;;
33206;SDS011;19565;46.602;11.534;2022-12-07T07:46:40;3.47;;;3.30;;
33206;SDS011;19565;46.602;11.534;2022-12-07T07:49:08;3.50;;;3.20;;
33206;SDS011;19565;46.602;11.534;2022-12-07T07:51:37;3.50;;;3.30;;
33206;SDS011;19565;46.602;11.534;2022-12-07T07:54:05;4.13;;;3.93;;
33206;SDS011;19565;46.602;11.534;2022-12-07T07:56:33;4.97;;;4.50;;
33206;SDS011;19565;46.602;11.534;2022-12-07T07:59:02;1.10;;;1.10;;
33206;SDS011;19565;46.602;11.534;2022-12-07T08:01:30;1.60;;;1.53;;
33206;SDS011;19565;46.602;11.534;2022-12-07T08:03:58;1.37;;;1.37;;
33206;SDS011;19565;46.602;11.534;2022-12-07T08:06:26;0.90;;;0.90;;
33206;SDS011;19565;46.602;11.534;2022-12-07T08:08:57;1.03;;;1.03;;
33206;SDS011;19565;46.602;11.534;2022-12-07T08:11:25;1.97;;;1.87;;
33206;SDS011;19565;46.602;11.534;2022-12-07T08:13:53;1.53;;;1.53;;
33206;SDS011;19565;46.602;11.534;2022-12-07T08:16:23;1.17;;;1.17;;
33206;SDS011;19565;46.602;11.534;2022-12-07T08:18:51;1.20;;;1.20;;
33206;SDS011;19565;46.602;11.534;2022-12-07T08:21:20;1.20;;;1.20;;
33206;SDS011;19565;46.602;11.534;2022-12-07T08:23:48;1.23;;;1.23;;
33206;SDS011;19565;46.602;11.534;2022-12-07T08:26:16;5.23;;;4.93;;
33206;SDS011;19565;46.602;11.534;2022-12-07T08:28:44;4.10;;;3.90;;
33206;SDS011;19565;46.602;11.534;2022-12-07T08:31:14;4.13;;;3.93;;
33206;SDS011;19565;46.602;11.534;2022-12-07T08:33:46;4.47;;;4.17;;
33206;SDS011;19565;46.602;11.534;2022-12-07T08:36:14;7.00;;;5.87;;
33206;SDS011;19565;46.602;11.534;2022-12-07T08:38:43;4.10;;;3.90;;
33206;SDS011;19565;46.602;11.534;2022-12-07T08:41:31;4.60;;;4.40;;
33206;SDS011;19565;46.602;11.534;2022-12-07T08:43:59;20.13;;;5.80;;
33206;SDS011;19565;46.602;11.534;2022-12-07T08:46:28;4.70;;;4.40;;
33206;SDS011;19565;46.602;11.534;2022-12-07T08:49:06;4.80;;;4.50;;
33206;SDS011;19565;46.602;11.534;2022-12-07T08:51:39;4.90;;;4.60;;
33206;SDS011;19565;46.602;11.534;2022-12-07T08:54:09;1.83;;;1.73;;
33206;SDS011;19565;46.602;11.534;2022-12-07T08:56:39;1.57;;;1.53;;
33206;SDS011;19565;46.602;11.534;2022-12-07T08:59:08;1.70;;;1.60;;
33206;SDS011;19565;46.602;11.534;2022-12-07T09:01:37;1.73;;;1.63;;
33206;SDS011;19565;46.602;11.534;2022-12-07T09:04:07;4.73;;;4.43;;
33206;SDS011;19565;46.602;11.534;2022-12-07T09:06:35;4.33;;;4.07;;
33206;SDS011;19565;46.602;11.534;2022-12-07T09:09:03;6.83;;;6.20;;
33206;SDS011;19565;46.602;11.534;2022-12-07T09:11:32;5.00;;;4.70;;
33206;SDS011;19565;46.602;11.534;2022-12-07T09:14:00;5.27;;;4.87;;
33206;SDS011;19565;46.602;11.534;2022-12-07T09:16:28;5.10;;;4.80;;
33206;SDS011;19565;46.602;11.534;2022-12-07T09:18:56;5.30;;;5.00;;
33206;SDS011;19565;46.602;11.534;2022-12-07T09:21:26;7.43;;;6.83;;
33206;SDS011;19565;46.602;11.534;2022-12-07T09:23:54;7.13;;;6.70;;
33206;SDS011;19565;46.602;11.534;2022-12-07T09:26:22;5.50;;;5.20;;
33206;SDS011;19565;46.602;11.534;2022-12-07T09:28:50;6.13;;;5.73;;
33206;SDS011;19565;46.602;11.534;2022-12-07T09:31:18;5.90;;;5.60;;
33206;SDS011;19565;46.602;11.534;2022-12-07T09:33:52;7.00;;;6.60;;
33206;SDS011;19565;46.602;11.534;2022-12-07T09:36:22;6.80;;;6.40;;
33206;SDS011;19565;46.602;11.534;2022-12-07T09:38:52;7.83;;;7.33;;
33206;SDS011;19565;46.602;11.534;2022-12-07T09:41:20;2.60;;;2.50;;
33206;SDS011;19565;46.602;11.534;2022-12-07T09:43:48;2.17;;;2.07;;
33206;SDS011;19565;46.602;11.534;2022-12-07T09:46:17;1.90;;;1.80;;
33206;SDS011;19565;46.602;11.534;2022-12-07T09:48:47;2.90;;;2.73;;
33206;SDS011;19565;46.602;11.534;2022-12-07T09:51:17;8.13;;;7.37;;
33206;SDS011;19565;46.602;11.534;2022-12-07T09:53:52;7.10;;;6.70;;
33206;SDS011;19565;46.602;11.534;2022-12-07T09:56:22;8.97;;;8.47;;
33206;SDS011;19565;46.602;11.534;2022-12-07T09:58:51;7.40;;;7.00;;
33206;SDS011;19565;46.602;11.534;2022-12-07T10:01:27;7.67;;;7.17;;
33206;SDS011;19565;46.602;11.534;2022-12-07T10:03:59;7.50;;;7.10;;
33206;SDS011;19565;46.602;11.534;2022-12-07T10:06:34;7.83;;;7.33;;
33206;SDS011;19565;46.602;11.534;2022-12-07T10:09:07;8.63;;;8.13;;
33206;SDS011;19565;46.602;11.534;2022-12-07T10:14:27;10.07;;;9.50;;
33206;SDS011;19565;46.602;11.534;2022-12-07T10:17:27;10.10;;;9.50;;
33206;SDS011;19565;46.602;11.534;2022-12-07T10:20:14;11.63;;;11.03;;
33206;SDS011;19565;46.602;11.534;2022-12-07T10:22:53;11.97;;;11.37;;
33206;SDS011;19565;46.602;11.534;2022-12-07T10:25:27;11.80;;;11.20;;
33206;SDS011;19565;46.602;11.534;2022-12-07T10:27:59;15.07;;;14.27;;
33206;SDS011;19565;46.602;11.534;2022-12-07T10:30:28;15.63;;;14.73;;
33206;SDS011;19565;46.602;11.534;2022-12-07T10:32:57;14.37;;;13.57;;
33206;SDS011;19565;46.602;11.534;2022-12-07T10:35:26;14.43;;;13.63;;
33206;SDS011;19565;46.602;11.534;2022-12-07T10:37:56;14.57;;;13.87;;
33206;SDS011;19565;46.602;11.534;2022-12-07T10:40:32;14.70;;;13.90;;
33206;SDS011;19565;46.602;11.534;2022-12-07T10:43:17;15.60;;;14.80;;
33206;SDS011;19565;46.602;11.534;2022-12-07T10:45:57;16.03;;;15.23;;
33206;SDS011;19565;46.602;11.534;2022-12-07T10:48:41;15.00;;;14.30;;
33206;SDS011;19565;46.602;11.534;2022-12-07T10:51:20;17.07;;;16.07;;
33206;SDS011;19565;46.602;11.534;2022-12-07T10:53:54;19.67;;;18.57;;
33206;SDS011;19565;46.602;11.534;2022-12-07T10:56:39;18.87;;;17.97;;
33206;SDS011;19565;46.602;11.534;2022-12-07T10:59:24;18.27;;;17.43;;
33206;SDS011;19565;46.602;11.534;2022-12-07T11:02:10;19.90;;;18.80;;
33206;SDS011;19565;46.602;11.534;2022-12-07T11:04:51;19.73;;;18.83;;
33206;SDS011;19565;46.602;11.534;2022-12-07T11:07:36;23.30;;;22.20;;
33206;SDS011;19565;46.602;11.534;2022-12-07T11:10:12;25.90;;;24.80;;
33206;SDS011;19565;46.602;11.534;2022-12-07T11:12:50;27.53;;;26.33;;
33206;SDS011;19565;46.602;11.534;2022-12-07T11:15:31;32.87;;;31.47;;
33206;SDS011;19565;46.602;11.534;2022-12-07T11:18:22;34.60;;;33.10;;
33206;SDS011;19565;46.602;11.534;2022-12-07T11:20:58;35.17;;;33.67;;
33206;SDS011;19565;46.602;11.534;2022-12-07T11:23:35;35.03;;;33.53;;
33206;SDS011;19565;46.602;11.534;2022-12-07T11:26:12;36.60;;;35.00;;
33206;SDS011;19565;46.602;11.534;2022-12-07T11:28:58;46.00;;;44.00;;
33206;SDS011;19565;46.602;11.534;2022-12-07T11:31:42;39.60;;;37.90;;
33206;SDS011;19565;46.602;11.534;2022-12-07T11:34:19;41.90;;;40.03;;
33206;SDS011;19565;46.602;11.534;2022-12-07T11:36:55;39.40;;;37.70;;
33206;SDS011;19565;46.602;11.534;2022-12-07T11:39:26;41.30;;;39.50;;
33206;SDS011;19565;46.602;11.534;2022-12-07T11:42:00;41.77;;;39.97;;
33206;SDS011;19565;46.602;11.534;2022-12-07T11:44:35;46.90;;;44.90;;
33206;SDS011;19565;46.602;11.534;2022-12-07T11:47:16;49.70;;;47.30;;
33206;SDS011;19565;46.602;11.534;2022-12-07T11:49:49;19.53;;;18.63;;
33206;SDS011;19565;46.602;11.534;2022-12-07T11:52:22;22.40;;;21.40;;
33206;SDS011;19565;46.602;11.534;2022-12-07T11:54:56;18.93;;;18.03;;
33206;SDS011;19565;46.602;11.534;2022-12-07T11:57:28;28.60;;;27.40;;
33206;SDS011;19565;46.602;11.534;2022-12-07T12:00:03;37.43;;;35.93;;
33206;SDS011;19565;46.602;11.534;2022-12-07T12:02:36;32.27;;;30.77;;
33206;SDS011;19565;46.602;11.534;2022-12-07T12:05:13;39.33;;;37.73;;
33206;SDS011;19565;46.602;11.534;2022-12-07T12:07:45;27.30;;;26.10;;
33206;SDS011;19565;46.602;11.534;2022-12-07T12:10:44;32.70;;;31.40;;
33206;SDS011;19565;46.602;11.534;2022-12-07T12:13:25;39.67;;;38.10;;
33206;SDS011;19565;46.602;11.534;2022-12-07T12:16:37;25.33;;;24.23;;
33206;SDS011;19565;46.602;11.534;2022-12-07T12:19:27;30.53;;;29.23;;
33206;SDS011;19565;46.602;11.534;2022-12-07T12:22:02;27.53;;;26.33;;
33206;SDS011;19565;46.602;11.534;2022-12-07T12:24:37;34.47;;;32.97;;
33206;SDS011;19565;46.602;11.534;2022-12-07T12:27:08;32.03;;;30.73;;
33206;SDS011;19565;46.602;11.534;2022-12-07T12:29:43;32.00;;;30.60;;
33206;SDS011;19565;46.602;11.534;2022-12-07T12:32:14;33.77;;;27.80;;
33206;SDS011;19565;46.602;11.534;2022-12-07T12:35:00;27.47;;;26.27;;
33206;SDS011;19565;46.602;11.534;2022-12-07T12:37:43;29.00;;;27.80;;
33206;SDS011;19565;46.602;11.534;2022-12-07T12:58:30;25.50;;;24.40;;
33206;SDS011;19565;46.602;11.534;2022-12-07T13:04:17;26.37;;;25.17;;
33206;SDS011;19565;46.602;11.534;2022-12-07T13:06:52;27.60;;;26.40;;
33206;SDS011;19565;46.602;11.534;2022-12-07T13:09:23;25.93;;;24.73;;
33206;SDS011;19565;46.602;11.534;2022-12-07T13:12:01;35.80;;;34.30;;
33206;SDS011;19565;46.602;11.534;2022-12-07T13:14:41;26.47;;;25.27;;
33206;SDS011;19565;46.602;11.534;2022-12-07T13:20:45;25.30;;;24.20;;
33206;SDS011;19565;46.602;11.534;2022-12-07T13:23:20;29.83;;;28.53;;
33206;SDS011;19565;46.602;11.534;2022-12-07T13:26:15;24.07;;;22.97;;
33206;SDS011;19565;46.602;11.534;2022-12-07T13:28:46;28.40;;;27.10;;
33206;SDS011;19565;46.602;11.534;2022-12-07T13:31:18;24.17;;;23.07;;
33206;SDS011;19565;46.602;11.534;2022-12-07T13:34:01;26.23;;;25.03;;
33206;SDS011;19565;46.602;11.534;2022-12-07T13:36:31;28.07;;;26.87;;
33206;SDS011;19565;46.602;11.534;2022-12-07T13:39:17;31.67;;;30.37;;
33206;SDS011;19565;46.602;11.534;2022-12-07T13:41:49;29.37;;;28.07;;
33206;SDS011;19565;46.602;11.534;2022-12-07T13:44:19;22.90;;;21.90;;
33206;SDS011;19565;46.602;11.534;2022-12-07T13:46:50;22.80;;;21.80;;
33206;SDS011;19565;46.602;11.534;2022-12-07T13:49:24;19.93;;;19.03;;
33206;SDS011;19565;46.602;11.534;2022-12-07T13:51:53;19.93;;;19.03;;
33206;SDS011;19565;46.602;11.534;2022-12-07T13:54:23;45.23;;;43.43;;
33206;SDS011;19565;46.602;11.534;2022-12-07T13:56:52;26.97;;;25.77;;
33206;SDS011;19565;46.602;11.534;2022-12-07T13:59:21;35.87;;;34.33;;
33206;SDS011;19565;46.602;11.534;2022-12-07T14:01:52;22.60;;;21.53;;
33206;SDS011;19565;46.602;11.534;2022-12-07T14:04:29;23.87;;;22.77;;
33206;SDS011;19565;46.602;11.534;2022-12-07T14:07:15;25.53;;;24.43;;
33206;SDS011;19565;46.602;11.534;2022-12-07T14:09:56;28.10;;;26.90;;
33206;SDS011;19565;46.602;11.534;2022-12-07T14:12:28;26.20;;;25.10;;
33206;SDS011;19565;46.602;11.534;2022-12-07T14:14:59;19.73;;;18.83;;
33206;SDS011;19565;46.602;11.534;2022-12-07T14:17:29;27.00;;;25.80;;
33206;SDS011;19565;46.602;11.534;2022-12-07T14:20:00;17.87;;;17.07;;
33206;SDS011;19565;46.602;11.534;2022-12-07T14:22:31;19.17;;;18.27;;
33206;SDS011;19565;46.602;11.534;2022-12-07T14:25:13;40.07;;;38.43;;
33206;SDS011;19565;46.602;11.534;2022-12-07T14:27:50;18.97;;;18.07;;
33206;SDS011;19565;46.602;11.534;2022-12-07T14:30:23;19.40;;;18.50;;
33206;SDS011;19565;46.602;11.534;2022-12-07T14:32:54;22.77;;;21.77;;
33206;SDS011;19565;46.602;11.534;2022-12-07T14:35:24;28.43;;;27.23;;
33206;SDS011;19565;46.602;11.534;2022-12-07T14:37:53;22.30;;;21.30;;
33206;SDS011;19565;46.602;11.534;2022-12-07T14:40:23;23.97;;;22.87;;
33206;SDS011;19565;46.602;11.534;2022-12-07T14:42:53;22.17;;;21.17;;
33206;SDS011;19565;46.602;11.534;2022-12-07T14:45:24;21.60;;;20.27;;
33206;SDS011;19565;46.602;11.534;2022-12-07T14:47:52;19.30;;;18.27;;
33206;SDS011;19565;46.602;11.534;2022-12-07T14:50:41;17.03;;;15.60;;
33206;SDS011;19565;46.602;11.534;2022-12-07T14:53:33;17.20;;;16.30;;
33206;SDS011;19565;46.602;11.534;2022-12-07T14:56:06;17.17;;;16.20;;
33206;SDS011;19565;46.602;11.534;2022-12-07T14:58:34;15.53;;;14.73;;
33206;SDS011;19565;46.602;11.534;2022-12-07T15:01:02;15.70;;;14.90;;
33206;SDS011;19565;46.602;11.534;2022-12-07T15:03:30;19.03;;;17.83;;
33206;SDS011;19565;46.602;11.534;2022-12-07T15:06:00;16.10;;;15.20;;
33206;SDS011;19565;46.602;11.534;2022-12-07T15:08:30;14.17;;;12.87;;
33206;SDS011;19565;46.602;11.534;2022-12-07T15:10:58;15.80;;;15.00;;
33206;SDS011;19565;46.602;11.534;2022-12-07T15:13:28;13.33;;;12.60;;
33206;SDS011;19565;46.602;11.534;2022-12-07T15:16:14;13.13;;;12.43;;
33206;SDS011;19565;46.602;11.534;2022-12-07T15:18:46;11.70;;;11.10;;
33206;SDS011;19565;46.602;11.534;2022-12-07T15:21:34;10.73;;;10.13;;
33206;SDS011;19565;46.602;11.534;2022-12-07T15:24:02;11.63;;;11.03;;